createdAt,value
2018-12-19T00:02:06.878Z,31.48
2018-12-19T00:04:38.407Z,30.90
2018-12-19T00:07:08.800Z,32.98
2018-12-19T00:09:37.095Z,32.73
2018-12-19T00:12:05.375Z,33.88
2018-12-19T00:14:33.587Z,38.28
2018-12-19T00:17:01.855Z,35.43
2018-12-19T00:19:29.815Z,34.35
2018-12-19T00:21:58.878Z,38.17
2018-12-19T00:24:27.132Z,30.30
2018-12-19T00:26:57.589Z,34.60
2018-12-19T00:29:27.744Z,36.08
2018-12-19T00:31:58.840Z,37.05
2018-12-19T00:34:28.751Z,33.00
2018-12-19T00:36:57.888Z,31.02
2018-12-19T00:39:26.267Z,32.63
2018-12-19T00:41:54.874Z,33.05
2018-12-19T00:44:24.757Z,36.08
2018-12-19T00:46:54.663Z,35.75
2018-12-19T00:49:24.595Z,29.67
2018-12-19T00:51:54.595Z,30.48
2018-12-19T00:54:23.592Z,36.00
2018-12-19T00:56:53.525Z,29.12
2018-12-19T00:59:23.435Z,31.23
2018-12-19T01:01:52.735Z,31.93
2018-12-19T01:04:22.430Z,33.45
2018-12-19T01:06:52.343Z,33.88
2018-12-19T01:09:22.407Z,37.38
2018-12-19T01:11:51.755Z,30.55
2018-12-19T01:14:22.098Z,30.72
2018-12-19T01:16:50.390Z,36.68
2018-12-19T01:19:35.844Z,37.90
2018-12-19T01:22:05.339Z,31.40
2018-12-19T01:24:34.867Z,32.95
2018-12-19T01:27:04.800Z,34.65
2018-12-19T01:29:35.279Z,32.20
2018-12-19T01:32:05.003Z,33.55
2018-12-19T01:34:34.943Z,29.95
2018-12-19T01:37:03.826Z,37.15
2018-12-19T01:39:32.032Z,38.40
2018-12-19T01:42:00.982Z,30.12
2018-12-19T01:44:29.304Z,34.23
2018-12-19T01:46:57.604Z,37.33
2018-12-19T01:49:25.908Z,35.75
2018-12-19T01:51:54.951Z,34.60
2018-12-19T01:54:23.295Z,36.38
2018-12-19T01:56:51.587Z,33.83
2018-12-19T01:59:19.852Z,35.05
2018-12-19T02:01:48.100Z,33.40
2018-12-19T02:04:16.067Z,33.05
2018-12-19T02:06:44.312Z,31.77
2018-12-19T02:09:12.550Z,34.55
2018-12-19T02:11:45.371Z,36.38
2018-12-19T02:14:21.059Z,40.70
2018-12-19T02:16:49.209Z,29.27
2018-12-19T02:19:17.424Z,35.38
2018-12-19T02:24:41.596Z,37.13
2018-12-19T02:27:09.503Z,36.25
2018-12-19T02:29:37.370Z,37.15
2018-12-19T02:32:08.386Z,33.48
2018-12-19T02:34:37.002Z,31.73
2018-12-19T02:37:05.300Z,35.85
2018-12-19T02:39:36.315Z,38.88
2018-12-19T02:42:04.037Z,40.55
2018-12-19T02:44:31.986Z,38.40
2018-12-19T02:47:00.051Z,41.18
2018-12-19T02:49:28.359Z,44.85
2018-12-19T02:51:56.659Z,39.13
2018-12-19T02:54:25.011Z,35.45
2018-12-19T02:56:53.099Z,33.83
2018-12-19T02:59:21.355Z,38.33
2018-12-19T03:01:49.682Z,40.83
2018-12-19T03:04:17.943Z,41.28
2018-12-19T03:06:47.522Z,35.45
2018-12-19T03:09:15.434Z,39.25
2018-12-19T03:11:43.534Z,35.75
2018-12-19T03:14:11.943Z,33.92
2018-12-19T03:16:44.008Z,39.53
2018-12-19T03:19:11.899Z,36.30
2018-12-19T03:21:39.926Z,35.48
2018-12-19T03:24:08.286Z,43.30
2018-12-19T03:26:36.501Z,41.00
2018-12-19T03:29:04.870Z,37.88
2018-12-19T03:31:33.067Z,34.18
2018-12-19T03:34:01.320Z,39.83
2018-12-19T03:36:29.776Z,40.90
2018-12-19T03:38:58.820Z,38.58
2018-12-19T03:41:27.911Z,35.45
2018-12-19T03:43:56.167Z,41.10
2018-12-19T03:46:24.337Z,37.40
2018-12-19T03:48:56.382Z,36.93
2018-12-19T03:51:25.772Z,43.42
2018-12-19T03:53:54.635Z,43.20
2018-12-19T03:56:22.563Z,41.58
2018-12-19T03:58:50.671Z,39.60
2018-12-19T04:01:19.038Z,43.02
2018-12-19T04:03:47.347Z,43.10
2018-12-19T04:06:15.694Z,36.75
2018-12-19T04:08:43.735Z,38.28
2018-12-19T04:11:12.197Z,35.55
2018-12-19T04:13:40.291Z,40.10
2018-12-19T04:16:08.641Z,41.00
2018-12-19T04:18:37.066Z,40.48
2018-12-19T04:21:05.224Z,40.65
2018-12-19T04:23:33.163Z,40.67
2018-12-19T04:26:01.388Z,35.03
2018-12-19T04:28:29.556Z,42.30
2018-12-19T04:30:57.843Z,42.30
2018-12-19T04:33:25.859Z,37.20
2018-12-19T04:35:57.730Z,37.53
2018-12-19T04:38:26.176Z,39.92
2018-12-19T04:40:55.434Z,33.88
2018-12-19T04:43:23.771Z,37.15
2018-12-19T04:45:51.970Z,39.67
2018-12-19T04:48:20.494Z,38.55
2018-12-19T04:50:49.831Z,36.58
2018-12-19T04:53:18.107Z,34.40
2018-12-19T04:55:46.503Z,34.48
2018-12-19T04:58:14.661Z,39.60
2018-12-19T05:00:42.929Z,42.53
2018-12-19T05:03:11.291Z,42.53
2018-12-19T05:05:40.347Z,35.70
2018-12-19T05:08:08.748Z,38.67
2018-12-19T05:10:37.360Z,39.00
2018-12-19T05:13:08.492Z,38.25
2018-12-19T05:15:36.695Z,36.68
2018-12-19T05:18:04.876Z,37.83
2018-12-19T05:20:33.222Z,41.73
2018-12-19T05:23:01.996Z,39.42
2018-12-19T05:25:30.300Z,42.30
2018-12-19T05:27:59.356Z,38.83
2018-12-19T05:30:27.612Z,39.15
2018-12-19T05:32:55.840Z,38.98
2018-12-19T05:35:24.251Z,40.85
2018-12-19T05:37:53.412Z,38.58
2018-12-19T05:40:21.573Z,35.13
2018-12-19T05:42:49.763Z,38.25
2018-12-19T05:45:19.836Z,40.98
2018-12-19T05:47:47.956Z,43.25
2018-12-19T05:50:16.958Z,40.83
2018-12-19T05:52:45.151Z,35.88
2018-12-19T05:55:14.123Z,38.38
2018-12-19T05:57:43.203Z,40.30
2018-12-19T06:00:12.676Z,46.63
2018-12-19T06:02:42.923Z,46.73
2018-12-19T06:05:12.095Z,46.40
2018-12-19T06:07:40.351Z,47.10
2018-12-19T06:10:08.918Z,47.90
2018-12-19T06:12:37.271Z,41.80
2018-12-19T06:15:05.321Z,47.67
2018-12-19T06:17:35.190Z,42.35
2018-12-19T06:20:03.740Z,37.17
2018-12-19T06:22:32.011Z,33.08
2018-12-19T06:25:00.235Z,40.08
2018-12-19T06:27:28.687Z,36.15
2018-12-19T06:29:56.864Z,30.35
2018-12-19T06:32:25.183Z,34.88
2018-12-19T06:34:53.448Z,34.08
2018-12-19T06:37:22.796Z,37.48
2018-12-19T06:39:50.799Z,42.03
2018-12-19T06:42:19.109Z,36.10
2018-12-19T06:44:47.367Z,43.55
2018-12-19T06:47:16.535Z,42.13
2018-12-19T06:49:44.591Z,37.10
2018-12-19T06:52:12.996Z,34.10
2018-12-19T06:54:40.864Z,33.25
2018-12-19T06:57:09.684Z,33.50
2018-12-19T06:59:38.331Z,30.92
2018-12-19T07:02:06.530Z,32.88
2018-12-19T07:04:34.739Z,35.55
2018-12-19T07:07:03.499Z,32.03
2018-12-19T07:09:31.755Z,30.23
2018-12-19T07:11:59.946Z,34.33
2018-12-19T07:14:27.891Z,35.48
2018-12-19T07:16:56.072Z,30.32
2018-12-19T07:19:24.448Z,37.33
2018-12-19T07:21:52.646Z,34.30
2018-12-19T07:24:21.407Z,29.37
2018-12-19T07:26:49.470Z,33.70
2018-12-19T07:29:17.378Z,34.03
2018-12-19T07:31:45.385Z,33.73
2018-12-19T07:34:13.753Z,32.17
2018-12-19T07:36:42.602Z,37.93
2018-12-19T07:39:11.884Z,37.80
2018-12-19T07:41:40.150Z,41.00
2018-12-19T07:44:09.324Z,36.98
2018-12-19T07:46:37.398Z,43.45
2018-12-19T07:49:22.540Z,35.38
2018-12-19T07:51:52.438Z,36.05
2018-12-19T07:54:20.765Z,36.77
2018-12-19T07:56:49.930Z,38.15
2018-12-19T07:59:18.023Z,41.30
2018-12-19T08:01:46.411Z,37.28
2018-12-19T08:04:15.120Z,38.85
2018-12-19T08:06:43.358Z,36.15
2018-12-19T08:09:11.267Z,43.63
2018-12-19T08:11:39.437Z,40.58
2018-12-19T08:14:08.801Z,38.65
2018-12-19T08:16:36.803Z,34.05
2018-12-19T08:19:22.582Z,36.40
2018-12-19T08:21:59.771Z,37.45
2018-12-19T08:24:27.587Z,36.80
2018-12-19T08:26:56.091Z,38.50
2018-12-19T08:29:24.603Z,46.70
2018-12-19T08:31:53.551Z,45.90
2018-12-19T08:34:22.723Z,31.80
2018-12-19T08:36:50.923Z,32.15
2018-12-19T08:39:19.399Z,36.70
2018-12-19T08:41:47.607Z,34.48
2018-12-19T08:44:15.483Z,35.80
2018-12-19T08:46:43.771Z,36.63
2018-12-19T08:49:13.235Z,39.00
2018-12-19T08:51:45.064Z,34.60
2018-12-19T08:54:15.343Z,41.20
2018-12-19T08:56:44.468Z,42.27
2018-12-19T08:59:12.431Z,37.40
2018-12-19T09:01:41.454Z,37.90
2018-12-19T09:04:13.073Z,39.90
2018-12-19T09:06:44.618Z,33.58
2018-12-19T09:09:12.859Z,41.08
2018-12-19T09:11:41.589Z,35.08
2018-12-19T09:14:09.800Z,36.13
2018-12-19T09:16:38.185Z,35.05
2018-12-19T09:19:06.474Z,31.68
2018-12-19T09:21:34.644Z,31.70
2018-12-19T09:24:02.627Z,47.00
2018-12-19T09:26:31.880Z,39.30
2018-12-19T09:28:59.908Z,76.05
2018-12-19T09:31:28.291Z,50.25
2018-12-19T09:33:56.391Z,30.15
2018-12-19T09:36:24.407Z,30.05
2018-12-19T09:38:52.664Z,38.65
2018-12-19T09:41:21.781Z,36.53
2018-12-19T09:43:49.891Z,28.40
2018-12-19T09:46:18.184Z,32.30
2018-12-19T09:48:46.581Z,31.20
2018-12-19T09:51:16.779Z,34.48
2018-12-19T09:53:52.155Z,33.90
2018-12-19T09:56:32.357Z,36.60
2018-12-19T09:59:04.691Z,39.55
2018-12-19T10:01:32.854Z,29.00
2018-12-19T10:04:02.639Z,31.33
2018-12-19T10:06:31.907Z,38.25
2018-12-19T10:09:17.027Z,32.53
2018-12-19T10:11:45.230Z,39.27
2018-12-19T10:14:14.318Z,34.08
2018-12-19T10:16:42.214Z,32.30
2018-12-19T10:19:10.386Z,33.48
2018-12-19T10:21:38.998Z,31.07
2018-12-19T10:24:06.928Z,33.75
2018-12-19T10:26:36.070Z,26.27
2018-12-19T10:29:08.003Z,27.32
2018-12-19T10:31:53.036Z,25.55
2018-12-19T10:34:20.945Z,28.00
2018-12-19T10:36:49.873Z,29.48
2018-12-19T10:39:18.212Z,26.62
2018-12-19T10:41:46.349Z,28.52
2018-12-19T10:44:15.271Z,28.07
2018-12-19T10:46:43.764Z,33.60
2018-12-19T10:49:11.962Z,27.52
2018-12-19T10:51:41.010Z,36.58
2018-12-19T10:54:09.283Z,30.23
2018-12-19T10:56:37.487Z,30.37
2018-12-19T10:59:05.896Z,32.33
2018-12-19T11:01:33.761Z,30.37
2018-12-19T11:04:02.769Z,30.70
2018-12-19T11:06:31.007Z,25.52
2018-12-19T11:08:59.468Z,28.98
2018-12-19T11:11:32.332Z,24.90
2018-12-19T11:14:00.135Z,24.75
2018-12-19T11:16:28.321Z,29.15
2018-12-19T11:18:56.425Z,26.35
2018-12-19T11:21:24.430Z,27.00
2018-12-19T11:23:52.942Z,23.35
2018-12-19T11:26:20.989Z,26.00
2018-12-19T11:28:49.267Z,23.40
2018-12-19T11:31:17.440Z,22.65
2018-12-19T11:33:46.617Z,26.75
2018-12-19T11:36:15.452Z,30.88
2018-12-19T11:38:45.727Z,31.12
2018-12-19T11:41:13.819Z,26.27
2018-12-19T11:43:42.255Z,28.42
2018-12-19T11:46:14.279Z,36.38
2018-12-19T11:48:42.416Z,27.70
2018-12-19T11:51:10.284Z,32.05
2018-12-19T11:53:38.559Z,31.20
2018-12-19T11:56:06.849Z,33.08
2018-12-19T11:58:35.012Z,30.82
2018-12-19T12:01:03.306Z,26.02
2018-12-19T12:03:31.520Z,33.65
2018-12-19T12:06:03.359Z,29.55
2018-12-19T12:08:32.723Z,26.23
2018-12-19T12:11:00.939Z,30.57
2018-12-19T12:13:29.215Z,26.17
2018-12-19T12:15:57.056Z,24.30
2018-12-19T12:18:25.439Z,28.70
2018-12-19T12:20:53.563Z,30.77
2018-12-19T12:23:22.324Z,31.90
2018-12-19T12:25:50.572Z,27.93
2018-12-19T12:28:18.883Z,28.95
2018-12-19T12:30:47.132Z,30.20
2018-12-19T12:33:16.354Z,31.12
2018-12-19T12:35:44.654Z,30.85
2018-12-19T12:38:12.920Z,31.50
2018-12-19T12:40:44.419Z,30.27
2018-12-19T12:43:12.860Z,29.30
2018-12-19T12:45:41.006Z,29.35
2018-12-19T12:48:10.035Z,29.90
2018-12-19T12:50:38.804Z,27.58
2018-12-19T12:53:07.040Z,30.15
2018-12-19T12:55:35.327Z,28.30
2018-12-19T12:58:04.057Z,25.55
2018-12-19T13:00:32.169Z,30.90
2018-12-19T13:03:00.920Z,24.67
2018-12-19T13:05:28.865Z,25.45
2018-12-19T13:07:57.034Z,32.75
2018-12-19T13:10:26.031Z,30.25
2018-12-19T13:12:54.128Z,31.75
2018-12-19T13:15:27.952Z,28.95
2018-12-19T13:17:57.548Z,42.03
2018-12-19T13:20:27.092Z,34.83
2018-12-19T13:22:55.275Z,32.58
2018-12-19T13:25:23.223Z,35.50
2018-12-19T13:27:52.794Z,37.90
2018-12-19T13:30:20.994Z,31.42
2018-12-19T13:32:49.164Z,33.50
2018-12-19T13:35:17.531Z,33.88
2018-12-19T13:37:45.800Z,29.98
2018-12-19T13:40:14.492Z,34.67
2018-12-19T13:42:43.549Z,33.75
2018-12-19T13:45:12.080Z,32.85
2018-12-19T13:47:40.011Z,31.93
2018-12-19T13:50:08.591Z,42.65
2018-12-19T13:52:37.248Z,35.35
2018-12-19T13:55:05.871Z,42.17
2018-12-19T13:57:33.783Z,37.48
2018-12-19T14:00:01.917Z,38.20
2018-12-19T14:02:31.109Z,38.28
2018-12-19T14:05:03.196Z,42.13
2018-12-19T14:07:31.371Z,35.78
2018-12-19T14:09:59.483Z,39.15
2018-12-19T14:12:27.692Z,35.78
2018-12-19T14:14:56.972Z,37.28
2018-12-19T14:17:25.247Z,42.15
2018-12-19T14:19:53.451Z,37.93
2018-12-19T14:22:21.704Z,39.85
2018-12-19T14:24:50.507Z,37.90
2018-12-19T14:27:18.752Z,36.25
2018-12-19T14:29:47.092Z,32.85
2018-12-19T14:32:15.362Z,33.25
2018-12-19T14:34:43.282Z,39.00
2018-12-19T14:37:11.274Z,40.15
2018-12-19T14:39:39.732Z,39.50
2018-12-19T14:42:07.960Z,38.83
2018-12-19T14:44:35.996Z,45.00
2018-12-19T14:47:04.151Z,46.28
2018-12-19T14:49:32.472Z,38.23
2018-12-19T14:52:01.904Z,38.10
2018-12-19T14:54:30.168Z,39.73
2018-12-19T14:56:58.169Z,35.85
2018-12-19T14:59:26.294Z,45.00
2018-12-19T15:01:54.536Z,37.85
2018-12-19T15:04:22.871Z,38.83
2018-12-19T15:06:52.046Z,41.13
2018-12-19T15:09:20.354Z,45.98
2018-12-19T15:11:48.902Z,37.60
2018-12-19T15:14:17.065Z,39.80
2018-12-19T15:16:45.639Z,50.40
2018-12-19T15:19:14.928Z,43.38
2018-12-19T15:21:42.963Z,46.60
2018-12-19T15:24:11.087Z,40.28
2018-12-19T15:26:39.394Z,41.45
2018-12-19T15:29:07.898Z,39.65
2018-12-19T15:31:35.947Z,39.63
2018-12-19T15:34:04.216Z,32.75
2018-12-19T15:36:32.531Z,36.83
2018-12-19T15:39:00.910Z,43.65
2018-12-19T15:41:30.607Z,32.33
2018-12-19T15:43:58.895Z,35.50
2018-12-19T15:46:26.894Z,38.63
2018-12-19T15:48:55.539Z,32.95
2018-12-19T15:51:23.799Z,34.20
2018-12-19T15:53:52.087Z,36.88
2018-12-19T15:56:20.048Z,39.67
2018-12-19T15:58:48.168Z,37.93
2018-12-19T16:01:16.474Z,46.45
2018-12-19T16:03:44.809Z,42.60
2018-12-19T16:06:13.062Z,39.53
2018-12-19T16:08:41.408Z,40.33
2018-12-19T16:11:09.603Z,43.75
2018-12-19T16:13:38.036Z,37.05
2018-12-19T16:16:06.245Z,40.50
2018-12-19T16:18:34.419Z,37.83
2018-12-19T16:21:02.444Z,39.38
2018-12-19T16:23:30.570Z,39.03
2018-12-19T16:26:10.480Z,44.27
2018-12-19T16:28:38.551Z,46.00
2018-12-19T16:31:06.774Z,45.85
2018-12-19T16:33:35.055Z,44.93
2018-12-19T16:36:03.362Z,44.75
2018-12-19T16:38:31.781Z,45.50
2018-12-19T16:40:59.942Z,44.18
2018-12-19T16:43:28.207Z,48.58
2018-12-19T16:45:56.408Z,51.90
2018-12-19T16:48:24.412Z,47.30
2018-12-19T16:50:52.644Z,51.08
2018-12-19T16:53:21.155Z,48.02
2018-12-19T16:55:50.813Z,47.88
2018-12-19T16:58:18.719Z,50.92
2018-12-19T17:00:46.986Z,40.60
2018-12-19T17:03:15.594Z,47.27
2018-12-19T17:05:43.934Z,43.92
2018-12-19T17:08:12.271Z,44.67
2018-12-19T17:10:40.372Z,43.15
2018-12-19T17:13:08.336Z,46.05
2018-12-19T17:15:37.115Z,52.80
2018-12-19T17:18:05.370Z,37.70
2018-12-19T17:20:33.570Z,44.63
2018-12-19T17:23:01.843Z,53.90
2018-12-19T17:25:29.832Z,52.45
2018-12-19T17:27:58.073Z,45.92
2018-12-19T17:30:26.311Z,43.02
2018-12-19T17:32:54.441Z,44.70
2018-12-19T17:35:22.504Z,44.42
2018-12-19T17:37:50.808Z,47.67
2018-12-19T17:40:20.191Z,43.33
2018-12-19T17:42:49.975Z,45.15
2018-12-19T17:45:17.934Z,47.65
2018-12-19T17:47:46.479Z,44.25
2018-12-19T17:50:14.551Z,41.83
2018-12-19T17:52:42.848Z,44.93
2018-12-19T17:55:11.153Z,53.55
2018-12-19T17:57:39.456Z,48.33
2018-12-19T18:00:09.707Z,48.63
2018-12-19T18:02:38.026Z,47.15
2018-12-19T18:05:06.473Z,53.02
2018-12-19T18:07:34.832Z,57.00
2018-12-19T18:10:03.570Z,58.13
2018-12-19T18:12:31.806Z,59.00
2018-12-19T18:15:00.450Z,52.03
2018-12-19T18:17:28.586Z,62.90
2018-12-19T18:19:56.699Z,59.93
2018-12-19T18:22:25.188Z,52.67
2018-12-19T18:24:53.409Z,55.35
2018-12-19T18:27:21.446Z,55.08
2018-12-19T18:29:49.888Z,50.25
2018-12-19T18:32:18.139Z,65.28
2018-12-19T18:34:46.329Z,51.88
2018-12-19T18:37:15.645Z,57.60
2018-12-19T18:39:43.675Z,61.25
2018-12-19T18:42:13.003Z,67.97
2018-12-19T18:44:42.265Z,65.12
2018-12-19T18:47:10.715Z,66.53
2018-12-19T18:49:38.982Z,61.68
2018-12-19T18:52:07.240Z,57.40
2018-12-19T18:54:35.519Z,54.53
2018-12-19T18:57:03.747Z,51.18
2018-12-19T18:59:31.790Z,53.30
2018-12-19T19:02:00.076Z,51.30
2018-12-19T19:04:28.275Z,49.58
2018-12-19T19:06:56.510Z,49.63
2018-12-19T19:09:26.007Z,51.85
2018-12-19T19:12:10.980Z,45.20
2018-12-19T19:14:39.253Z,52.75
2018-12-19T19:17:07.590Z,49.50
2018-12-19T19:19:35.894Z,46.73
2018-12-19T19:22:04.098Z,52.70
2018-12-19T19:24:32.437Z,44.80
2018-12-19T19:27:01.807Z,48.23
2018-12-19T19:29:29.691Z,48.65
2018-12-19T19:31:58.106Z,44.05
2018-12-19T19:34:27.645Z,50.63
2018-12-19T19:36:57.537Z,47.93
2018-12-19T19:39:25.849Z,51.30
2018-12-19T19:41:53.870Z,49.63
2018-12-19T19:44:21.952Z,54.30
2018-12-19T19:46:50.225Z,52.50
2018-12-19T19:49:18.281Z,52.03
2018-12-19T19:51:46.399Z,45.20
2018-12-19T19:54:16.027Z,50.25
2018-12-19T19:56:44.007Z,48.63
2018-12-19T19:59:12.239Z,43.70
2018-12-19T20:01:41.775Z,48.75
2018-12-19T20:04:10.189Z,51.37
2018-12-19T20:06:38.422Z,52.00
2018-12-19T20:09:08.319Z,49.30
2018-12-19T20:11:36.541Z,50.10
2018-12-19T20:14:04.972Z,53.15
2018-12-19T20:16:37.598Z,56.13
2018-12-19T20:19:06.263Z,53.78
2018-12-19T20:21:34.613Z,53.33
2018-12-19T20:24:02.927Z,50.40
2018-12-19T20:26:30.963Z,50.90
2018-12-19T20:28:59.039Z,41.23
2018-12-19T20:31:27.276Z,47.17
2018-12-19T20:33:56.120Z,48.38
2018-12-19T20:36:24.363Z,46.50
2018-12-19T20:38:52.496Z,55.20
2018-12-19T20:41:20.757Z,60.15
2018-12-19T20:43:49.092Z,60.50
2018-12-19T20:46:17.453Z,57.23
2018-12-19T20:48:45.623Z,53.13
2018-12-19T20:51:13.802Z,51.63
2018-12-19T20:53:42.284Z,60.98
2018-12-19T20:56:10.487Z,61.35
2018-12-19T20:58:38.694Z,47.70
2018-12-19T21:01:07.006Z,49.40
2018-12-19T21:03:35.456Z,43.42
2018-12-19T21:06:03.475Z,54.55
2018-12-19T21:08:31.449Z,60.03
2018-12-19T21:10:59.618Z,51.95
2018-12-19T21:13:28.104Z,50.58
2018-12-19T21:15:56.288Z,52.38
2018-12-19T21:18:29.734Z,55.70
2018-12-19T21:20:57.637Z,50.92
2018-12-19T21:23:26.109Z,52.40
2018-12-19T21:25:54.298Z,48.68
2018-12-19T21:28:22.536Z,51.33
2018-12-19T21:30:50.819Z,49.77
2018-12-19T21:33:18.762Z,53.00
2018-12-19T21:35:47.045Z,48.20
2018-12-19T21:38:15.225Z,53.87
2018-12-19T21:40:43.395Z,55.25
2018-12-19T21:43:11.264Z,55.90
2018-12-19T21:45:39.281Z,50.25
2018-12-19T21:48:07.558Z,52.00
2018-12-19T21:50:35.978Z,50.95
2018-12-19T21:53:04.073Z,57.17
2018-12-19T21:55:32.306Z,54.10
2018-12-19T21:58:00.737Z,49.70
2018-12-19T22:00:33.369Z,52.20
2018-12-19T22:03:06.857Z,50.52
2018-12-19T22:05:38.865Z,53.48
2018-12-19T22:08:06.846Z,58.02
2018-12-19T22:10:34.890Z,50.80
2018-12-19T22:13:02.900Z,49.50
2018-12-19T22:15:31.394Z,53.42
2018-12-19T22:18:04.969Z,57.95
2018-12-19T22:20:34.232Z,59.85
2018-12-19T22:23:02.542Z,54.35
2018-12-19T22:25:31.035Z,58.60
2018-12-19T22:27:59.292Z,60.12
2018-12-19T22:30:27.579Z,65.60
2018-12-19T22:32:55.695Z,59.90
2018-12-19T22:35:24.012Z,52.30
2018-12-19T22:37:52.250Z,59.30
2018-12-19T22:40:20.594Z,51.08
2018-12-19T22:42:48.669Z,54.85
2018-12-19T22:45:18.471Z,49.40
2018-12-19T22:47:46.651Z,49.63
2018-12-19T22:50:14.959Z,55.12
2018-12-19T22:52:43.226Z,52.08
2018-12-19T22:55:11.511Z,57.20
2018-12-19T22:57:39.746Z,49.65
2018-12-19T23:00:16.004Z,50.83
2018-12-19T23:02:51.584Z,55.70
2018-12-19T23:05:25.176Z,53.60
2018-12-19T23:07:54.339Z,48.92
2018-12-19T23:10:22.530Z,61.95
2018-12-19T23:12:50.776Z,53.45
2018-12-19T23:15:21.043Z,57.62
2018-12-19T23:17:59.653Z,49.00
2018-12-19T23:20:34.219Z,54.05
2018-12-19T23:23:09.344Z,54.08
2018-12-19T23:25:43.531Z,56.05
2018-12-19T23:28:14.134Z,52.03
2018-12-19T23:30:43.022Z,55.23
2018-12-19T23:33:11.426Z,55.95
2018-12-19T23:35:40.124Z,52.35
2018-12-19T23:38:08.290Z,51.02
2018-12-19T23:40:36.531Z,51.73
2018-12-19T23:43:04.761Z,53.85
2018-12-19T23:45:32.873Z,52.27
2018-12-19T23:48:01.146Z,52.20
2018-12-19T23:50:29.297Z,59.58
2018-12-19T23:52:57.506Z,54.42
2018-12-19T23:55:25.744Z,55.12
2018-12-19T23:57:54.140Z,56.10
